createdAt,value
2019-02-10T00:00:46.073Z,3.50
2019-02-10T00:03:14.494Z,3.50
2019-02-10T00:05:43.011Z,3.50
2019-02-10T00:08:11.480Z,3.50
2019-02-10T00:10:39.931Z,3.50
2019-02-10T00:13:27.750Z,3.40
2019-02-10T00:15:58.057Z,3.50
2019-02-10T00:18:32.181Z,3.50
2019-02-10T00:21:00.601Z,3.60
2019-02-10T00:23:29.025Z,3.50
2019-02-10T00:25:57.457Z,3.50
2019-02-10T00:28:25.915Z,3.60
2019-02-10T00:30:54.339Z,3.60
2019-02-10T00:33:22.783Z,3.70
2019-02-10T00:35:51.218Z,3.70
2019-02-10T00:38:19.659Z,3.70
2019-02-10T00:40:48.076Z,3.80
2019-02-10T00:43:16.561Z,3.80
2019-02-10T00:45:44.997Z,3.70
2019-02-10T00:48:13.541Z,3.70
2019-02-10T00:50:42.002Z,3.70
2019-02-10T00:53:10.484Z,3.70
2019-02-10T00:55:38.989Z,3.70
2019-02-10T00:58:07.456Z,3.80
2019-02-10T01:00:36.109Z,3.80
2019-02-10T01:03:04.628Z,3.80
2019-02-10T01:05:33.126Z,3.80
2019-02-10T01:08:02.533Z,3.90
2019-02-10T01:10:31.030Z,3.90
2019-02-10T01:12:59.462Z,3.90
2019-02-10T01:15:27.944Z,4.00
2019-02-10T01:17:56.437Z,4.00
2019-02-10T01:20:24.984Z,4.00
2019-02-10T01:22:53.431Z,4.00
2019-02-10T01:25:21.941Z,4.00
2019-02-10T01:27:50.643Z,4.00
2019-02-10T01:30:19.143Z,4.00
2019-02-10T01:32:47.675Z,4.00
2019-02-10T01:35:16.205Z,4.10
2019-02-10T01:37:44.683Z,4.10
2019-02-10T01:40:13.249Z,4.10
2019-02-10T01:42:41.753Z,4.00
2019-02-10T01:45:12.095Z,4.00
2019-02-10T01:47:40.601Z,4.00
2019-02-10T01:50:10.853Z,4.00
2019-02-10T01:52:39.293Z,4.00
2019-02-10T01:55:10.378Z,4.00
2019-02-10T01:57:38.867Z,4.00
2019-02-10T02:00:10.413Z,4.00
2019-02-10T02:02:38.910Z,4.00
2019-02-10T02:05:08.154Z,4.00
2019-02-10T02:07:36.726Z,4.00
2019-02-10T02:10:07.463Z,3.90
2019-02-10T02:12:36.022Z,3.90
2019-02-10T02:15:06.942Z,3.90
2019-02-10T02:17:35.428Z,3.90
2019-02-10T02:20:04.766Z,3.90
2019-02-10T02:22:33.209Z,3.90
2019-02-10T02:25:01.705Z,3.90
2019-02-10T02:27:30.173Z,4.00
2019-02-10T02:29:58.675Z,4.00
2019-02-10T02:32:27.168Z,4.00
2019-02-10T02:34:55.653Z,4.00
2019-02-10T02:37:24.385Z,4.00
2019-02-10T02:39:52.918Z,4.00
2019-02-10T02:42:21.394Z,4.00
2019-02-10T02:44:49.849Z,4.00
2019-02-10T02:47:18.314Z,4.00
2019-02-10T02:49:46.762Z,4.00
2019-02-10T02:52:15.229Z,4.00
2019-02-10T02:54:43.706Z,4.00
2019-02-10T02:57:12.189Z,4.00
2019-02-10T02:59:40.722Z,3.90
2019-02-10T03:02:09.171Z,3.90
2019-02-10T03:04:37.618Z,3.90
2019-02-10T03:07:06.105Z,3.90
2019-02-10T03:09:34.564Z,3.90
2019-02-10T03:12:03.074Z,3.80
2019-02-10T03:14:31.534Z,3.80
2019-02-10T03:16:59.986Z,3.70
2019-02-10T03:19:28.464Z,3.70
2019-02-10T03:21:56.917Z,3.70
2019-02-10T03:24:25.406Z,3.60
2019-02-10T03:26:54.814Z,3.60
2019-02-10T03:29:23.309Z,3.60
2019-02-10T03:31:51.753Z,3.60
2019-02-10T03:34:20.294Z,3.50
2019-02-10T03:36:48.752Z,3.50
2019-02-10T03:39:17.186Z,3.50
2019-02-10T03:41:45.605Z,3.50
2019-02-10T03:44:14.048Z,3.60
2019-02-10T03:46:42.479Z,3.60
2019-02-10T03:49:11.154Z,3.60
2019-02-10T03:51:39.578Z,3.60
2019-02-10T03:54:08.181Z,3.60
2019-02-10T03:56:36.606Z,3.60
2019-02-10T03:59:05.019Z,3.60
2019-02-10T04:01:33.523Z,3.50
2019-02-10T04:04:01.956Z,3.40
2019-02-10T04:06:30.456Z,3.30
2019-02-10T04:08:58.918Z,3.20
2019-02-10T04:11:27.395Z,3.10
2019-02-10T04:13:55.819Z,2.90
2019-02-10T04:16:24.335Z,2.80
2019-02-10T04:18:52.768Z,2.70
2019-02-10T04:21:21.242Z,2.60
2019-02-10T04:23:49.712Z,2.50
2019-02-10T04:26:18.177Z,2.40
2019-02-10T04:28:46.611Z,2.30
2019-02-10T04:31:15.157Z,2.30
2019-02-10T04:33:43.606Z,2.20
2019-02-10T04:36:12.100Z,2.20
2019-02-10T04:38:40.503Z,2.10
2019-02-10T04:41:08.966Z,2.00
2019-02-10T04:43:37.449Z,2.00
2019-02-10T04:46:05.905Z,1.90
2019-02-10T04:48:34.434Z,1.80
2019-02-10T04:51:02.922Z,1.80
2019-02-10T04:53:31.399Z,1.80
2019-02-10T04:56:16.375Z,1.80
2019-02-10T04:58:44.845Z,1.80
2019-02-10T05:01:13.348Z,1.70
2019-02-10T05:03:41.882Z,1.70
2019-02-10T05:06:10.347Z,1.60
2019-02-10T05:08:38.829Z,1.60
2019-02-10T05:11:07.275Z,1.60
2019-02-10T05:13:35.721Z,1.60
2019-02-10T05:16:04.446Z,1.60
2019-02-10T05:18:32.896Z,1.60
2019-02-10T05:21:01.328Z,1.60
2019-02-10T05:23:29.774Z,1.50
2019-02-10T05:25:58.218Z,1.50
2019-02-10T05:28:26.733Z,1.50
2019-02-10T05:30:55.177Z,1.50
2019-02-10T05:33:23.639Z,1.50
2019-02-10T05:35:52.138Z,1.40
2019-02-10T05:38:20.629Z,1.40
2019-02-10T05:40:49.091Z,1.50
2019-02-10T05:43:17.572Z,1.50
2019-02-10T05:45:45.997Z,1.50
2019-02-10T05:48:14.421Z,1.50
2019-02-10T05:50:42.849Z,1.60
2019-02-10T05:53:11.309Z,1.70
2019-02-10T05:55:39.716Z,1.70
2019-02-10T05:58:08.174Z,1.80
2019-02-10T06:00:36.598Z,1.90
2019-02-10T06:03:05.024Z,2.00
2019-02-10T06:05:33.509Z,2.10
2019-02-10T06:08:01.952Z,2.10
2019-02-10T06:10:30.399Z,2.20
2019-02-10T06:12:58.852Z,2.30
2019-02-10T06:15:27.293Z,2.30
2019-02-10T06:17:55.696Z,2.40
2019-02-10T06:20:24.163Z,2.50
2019-02-10T06:22:52.570Z,2.50
2019-02-10T06:25:21.129Z,2.60
2019-02-10T06:27:49.521Z,2.60
2019-02-10T06:30:17.962Z,2.70
2019-02-10T06:32:46.619Z,2.80
2019-02-10T06:35:15.084Z,2.80
2019-02-10T06:37:43.550Z,2.80
2019-02-10T06:40:12.075Z,2.90
2019-02-10T06:42:40.490Z,2.90
2019-02-10T06:45:10.538Z,3.00
2019-02-10T06:47:38.965Z,3.00
2019-02-10T06:50:08.455Z,3.10
2019-02-10T06:52:36.954Z,3.10
2019-02-10T06:55:07.705Z,3.20
2019-02-10T06:57:36.145Z,3.20
2019-02-10T07:00:08.363Z,3.30
2019-02-10T07:02:57.555Z,3.40
2019-02-10T07:05:26.121Z,3.40
2019-02-10T07:07:54.538Z,3.40
2019-02-10T07:10:22.998Z,3.40
2019-02-10T07:12:51.498Z,3.50
2019-02-10T07:15:55.737Z,3.60
2019-02-10T07:19:00.191Z,3.70
2019-02-10T07:21:33.663Z,3.70
2019-02-10T07:24:08.105Z,3.80
2019-02-10T07:26:39.637Z,3.80
2019-02-10T07:29:16.995Z,3.90
2019-02-10T07:31:48.528Z,3.90
2019-02-10T07:34:22.658Z,3.90
2019-02-10T07:37:10.708Z,4.00
2019-02-10T07:39:58.024Z,4.10
2019-02-10T07:42:38.173Z,4.10
2019-02-10T07:45:12.364Z,4.20
2019-02-10T07:47:46.941Z,4.20
2019-02-10T07:50:27.088Z,4.20
2019-02-10T07:53:07.212Z,4.20
2019-02-10T07:55:41.343Z,4.20
2019-02-10T07:58:39.843Z,4.30
2019-02-10T08:01:19.925Z,4.30
2019-02-10T08:04:11.983Z,4.30
2019-02-10T08:06:52.257Z,4.40
2019-02-10T08:09:41.664Z,4.40
2019-02-10T08:12:21.786Z,4.40
2019-02-10T08:15:12.825Z,4.40
2019-02-10T08:17:56.063Z,4.40
2019-02-10T08:20:27.606Z,4.50
2019-02-10T08:23:18.206Z,4.50
2019-02-10T08:25:55.699Z,4.60
2019-02-10T08:28:48.126Z,4.60
2019-02-10T08:31:40.525Z,4.70
2019-02-10T08:34:12.096Z,4.70
2019-02-10T08:36:52.452Z,4.70
2019-02-10T08:39:52.670Z,4.80
2019-02-10T08:42:26.954Z,4.80
2019-02-10T08:44:58.593Z,4.80
2019-02-10T08:47:54.019Z,4.80
2019-02-10T08:50:46.302Z,4.90
2019-02-10T08:53:17.949Z,4.90
2019-02-10T08:55:46.989Z,5.00
2019-02-10T08:58:15.586Z,5.00
2019-02-10T09:00:44.227Z,5.00
2019-02-10T09:03:19.346Z,5.10
2019-02-10T09:05:42.971Z,5.10
2019-02-10T09:08:11.424Z,5.10
2019-02-10T09:10:40.018Z,5.20
2019-02-10T09:13:08.605Z,5.20
2019-02-10T09:15:39.247Z,5.20
2019-02-10T09:18:07.799Z,5.20
2019-02-10T09:20:36.277Z,5.30
2019-02-10T09:23:04.801Z,5.30
2019-02-10T09:25:33.269Z,5.30
2019-02-10T09:28:01.866Z,5.30
2019-02-10T09:30:30.321Z,5.40
2019-02-10T09:32:58.882Z,5.40
2019-02-10T09:35:27.394Z,5.40
2019-02-10T09:37:55.844Z,5.50
2019-02-10T09:40:26.973Z,5.50
2019-02-10T09:42:55.466Z,5.50
2019-02-10T09:45:24.996Z,5.50
2019-02-10T09:47:53.524Z,5.50
2019-02-10T09:50:22.015Z,5.60
2019-02-10T09:52:50.601Z,5.50
2019-02-10T09:55:19.047Z,5.60
2019-02-10T09:57:47.525Z,5.50
2019-02-10T10:00:16.082Z,5.60
2019-02-10T10:02:44.585Z,5.50
2019-02-10T10:05:13.845Z,5.50
2019-02-10T10:07:42.337Z,5.50
2019-02-10T10:10:13.098Z,5.50
2019-02-10T10:12:41.622Z,5.50
2019-02-10T10:15:12.926Z,5.50
2019-02-10T10:17:41.503Z,5.50
2019-02-10T10:20:18.025Z,5.60
2019-02-10T10:22:46.491Z,5.50
2019-02-10T10:25:15.146Z,5.50
2019-02-10T10:27:43.704Z,5.50
2019-02-10T10:30:20.500Z,5.50
2019-02-10T10:32:49.066Z,5.40
2019-02-10T10:35:17.559Z,5.50
2019-02-10T10:37:46.021Z,5.40
2019-02-10T10:40:15.499Z,5.40
2019-02-10T10:42:44.000Z,5.30
2019-02-10T10:45:15.704Z,5.30
2019-02-10T10:47:44.207Z,5.30
2019-02-10T10:50:14.199Z,5.30
2019-02-10T10:52:42.643Z,5.30
2019-02-10T10:55:13.202Z,5.20
2019-02-10T10:57:41.794Z,5.20
2019-02-10T11:00:15.884Z,5.20
2019-02-10T11:02:44.376Z,5.20
2019-02-10T11:05:14.782Z,5.30
2019-02-10T11:07:43.250Z,5.30
2019-02-10T11:10:12.878Z,5.30
2019-02-10T11:12:41.365Z,5.30
2019-02-10T11:15:15.096Z,5.30
2019-02-10T11:17:43.648Z,5.30
2019-02-10T11:20:12.519Z,5.30
2019-02-10T11:22:41.090Z,5.30
2019-02-10T11:25:13.102Z,5.30
2019-02-10T11:27:41.628Z,5.30
2019-02-10T11:30:12.452Z,5.30
2019-02-10T11:32:40.882Z,5.40
2019-02-10T11:35:10.059Z,5.40
2019-02-10T11:37:38.588Z,5.40
2019-02-10T11:40:09.826Z,5.40
2019-02-10T11:42:38.365Z,5.50
2019-02-10T11:45:09.699Z,5.50
2019-02-10T11:47:38.187Z,5.50
2019-02-10T11:50:11.753Z,5.50
2019-02-10T11:52:40.565Z,5.60
2019-02-10T11:55:10.323Z,5.60
2019-02-10T11:57:38.797Z,5.60
2019-02-10T12:00:10.354Z,5.70
2019-02-10T12:02:38.805Z,5.70
2019-02-10T12:05:09.683Z,5.70
2019-02-10T12:07:38.195Z,5.70
2019-02-10T12:10:09.616Z,5.70
2019-02-10T12:12:38.117Z,5.70
2019-02-10T12:15:12.169Z,5.80
2019-02-10T12:17:40.679Z,5.70
2019-02-10T12:20:11.432Z,5.70
2019-02-10T12:22:39.967Z,5.80
2019-02-10T12:25:09.878Z,5.80
2019-02-10T12:27:38.365Z,5.80
2019-02-10T12:30:10.314Z,5.80
2019-02-10T12:32:38.814Z,5.80
2019-02-10T12:35:09.356Z,5.80
2019-02-10T12:37:37.863Z,5.80
2019-02-10T12:40:08.183Z,5.80
2019-02-10T12:42:36.768Z,5.80
2019-02-10T12:45:07.657Z,5.80
2019-02-10T12:47:36.127Z,5.80
2019-02-10T12:50:12.397Z,5.80
2019-02-10T12:52:40.951Z,5.80
2019-02-10T12:55:10.890Z,5.90
2019-02-10T12:57:39.717Z,5.80
2019-02-10T13:00:20.979Z,5.80
2019-02-10T13:02:49.494Z,5.90
2019-02-10T13:05:18.146Z,5.90
2019-02-10T13:07:46.682Z,5.90
2019-02-10T13:10:18.478Z,5.90
2019-02-10T13:12:47.103Z,5.90
2019-02-10T13:15:15.846Z,5.80
2019-02-10T13:17:44.349Z,5.80
2019-02-10T13:20:14.415Z,5.80
2019-02-10T13:22:42.869Z,5.80
2019-02-10T13:25:12.459Z,5.80
2019-02-10T13:27:41.011Z,5.80
2019-02-10T13:30:17.117Z,5.80
2019-02-10T13:32:45.540Z,5.80
2019-02-10T13:35:14.049Z,5.80
2019-02-10T13:37:42.480Z,5.80
2019-02-10T13:40:18.727Z,5.70
2019-02-10T13:42:47.325Z,5.60
2019-02-10T13:45:15.887Z,5.50
2019-02-10T13:47:44.387Z,5.40
2019-02-10T13:50:17.689Z,5.20
2019-02-10T13:52:46.265Z,5.20
2019-02-10T13:55:16.316Z,5.20
2019-02-10T13:57:44.826Z,5.00
2019-02-10T14:00:21.474Z,5.00
2019-02-10T14:02:49.973Z,5.00
2019-02-10T14:05:18.377Z,4.90
2019-02-10T14:07:46.837Z,4.80
2019-02-10T14:10:24.928Z,4.80
2019-02-10T14:12:46.772Z,4.70
2019-02-10T14:15:19.517Z,4.70
2019-02-10T14:17:47.994Z,4.60
2019-02-10T14:20:18.490Z,4.60
2019-02-10T14:22:47.061Z,4.50
2019-02-10T14:25:15.527Z,4.50
2019-02-10T14:27:44.960Z,4.50
2019-02-10T14:30:16.946Z,4.50
2019-02-10T14:32:45.716Z,4.40
2019-02-10T14:35:14.267Z,4.40
2019-02-10T14:37:42.720Z,4.40
2019-02-10T14:40:12.366Z,4.30
2019-02-10T14:42:40.855Z,4.30
2019-02-10T14:45:15.047Z,4.30
2019-02-10T14:47:43.551Z,4.30
2019-02-10T14:50:14.196Z,4.30
2019-02-10T14:52:42.627Z,4.30
2019-02-10T14:55:11.962Z,4.30
2019-02-10T14:57:40.396Z,4.30
2019-02-10T15:00:11.446Z,4.30
2019-02-10T15:02:39.951Z,4.30
2019-02-10T15:05:08.522Z,4.30
2019-02-10T15:07:37.034Z,4.30
2019-02-10T15:10:11.890Z,4.30
2019-02-10T15:12:40.529Z,4.30
2019-02-10T15:15:10.691Z,4.20
2019-02-10T15:17:39.204Z,4.20
2019-02-10T15:20:09.619Z,4.20
2019-02-10T15:22:38.037Z,4.20
2019-02-10T15:25:14.034Z,4.20
2019-02-10T15:27:42.534Z,4.20
2019-02-10T15:30:15.911Z,4.20
2019-02-10T15:32:44.339Z,4.20
2019-02-10T15:35:13.717Z,4.20
2019-02-10T15:37:44.206Z,4.20
2019-02-10T15:40:13.359Z,4.10
2019-02-10T15:42:41.848Z,4.10
2019-02-10T15:45:13.871Z,4.10
2019-02-10T15:47:42.401Z,4.10
2019-02-10T15:50:14.890Z,4.00
2019-02-10T15:52:43.358Z,4.00
2019-02-10T15:55:12.839Z,4.00
2019-02-10T15:57:41.249Z,3.90
2019-02-10T16:00:12.875Z,3.90
2019-02-10T16:02:41.784Z,3.90
2019-02-10T16:05:10.197Z,3.90
2019-02-10T16:07:38.620Z,3.90
2019-02-10T16:10:09.678Z,3.90
2019-02-10T16:12:38.107Z,3.90
2019-02-10T16:15:08.947Z,3.80
2019-02-10T16:17:37.408Z,3.70
2019-02-10T16:20:09.269Z,3.60
2019-02-10T16:22:37.695Z,3.50
2019-02-10T16:25:07.254Z,3.50
2019-02-10T16:27:35.702Z,3.40
2019-02-10T16:30:07.274Z,3.20
2019-02-10T16:32:35.815Z,3.10
2019-02-10T16:35:05.062Z,3.00
2019-02-10T16:37:33.500Z,3.00
2019-02-10T16:40:02.193Z,3.00
2019-02-10T16:42:30.682Z,2.90
2019-02-10T16:44:59.110Z,2.90
2019-02-10T16:47:27.604Z,3.00
2019-02-10T16:49:56.037Z,3.00
2019-02-10T16:52:24.444Z,3.00
2019-02-10T16:54:52.902Z,3.00
2019-02-10T16:57:21.330Z,3.10
2019-02-10T16:59:49.772Z,3.00
2019-02-10T17:02:18.207Z,3.00
2019-02-10T17:04:46.605Z,3.00
2019-02-10T17:07:15.026Z,3.00
2019-02-10T17:09:43.501Z,3.00
2019-02-10T17:12:11.953Z,3.00
2019-02-10T17:14:40.364Z,2.90
2019-02-10T17:17:08.805Z,2.90
2019-02-10T17:19:37.213Z,2.90
2019-02-10T17:22:05.721Z,2.90
2019-02-10T17:24:34.158Z,2.90
2019-02-10T17:27:02.569Z,2.90
2019-02-10T17:29:31.009Z,2.80
2019-02-10T17:31:59.446Z,2.70
2019-02-10T17:34:27.882Z,2.70
2019-02-10T17:36:56.349Z,2.60
2019-02-10T17:39:24.774Z,2.50
2019-02-10T17:41:53.302Z,2.50
2019-02-10T17:44:21.697Z,2.50
2019-02-10T17:46:50.176Z,2.50
2019-02-10T17:49:18.641Z,2.50
2019-02-10T17:51:47.072Z,2.50
2019-02-10T17:54:15.490Z,2.50
2019-02-10T17:56:43.920Z,2.50
2019-02-10T17:59:12.341Z,2.50
2019-02-10T18:01:40.758Z,2.60
2019-02-10T18:04:09.231Z,2.60
2019-02-10T18:06:37.637Z,2.60
2019-02-10T18:09:07.037Z,2.70
2019-02-10T18:11:35.433Z,2.70
2019-02-10T18:14:05.704Z,2.70
2019-02-10T18:16:38.397Z,2.60
2019-02-10T18:19:23.595Z,2.70
2019-02-10T18:21:53.654Z,2.70
2019-02-10T18:24:42.041Z,2.70
2019-02-10T18:27:23.920Z,2.70
2019-02-10T18:29:56.431Z,2.70
2019-02-10T18:32:26.504Z,2.70
2019-02-10T18:34:59.593Z,2.70
2019-02-10T18:37:46.073Z,2.60
2019-02-10T18:40:19.098Z,2.60
2019-02-10T18:43:04.242Z,2.60
2019-02-10T18:45:34.324Z,2.60
2019-02-10T18:48:04.404Z,2.50
2019-02-10T18:50:40.422Z,2.50
2019-02-10T18:53:19.203Z,2.50
2019-02-10T18:56:07.165Z,2.50
2019-02-10T18:58:37.293Z,2.50
2019-02-10T19:01:13.183Z,2.50
2019-02-10T19:03:43.229Z,2.50
2019-02-10T19:06:13.327Z,2.50
2019-02-10T19:08:43.388Z,2.50
2019-02-10T19:11:31.434Z,2.50
2019-02-10T19:14:04.506Z,2.50
2019-02-10T19:16:37.665Z,2.50
2019-02-10T19:19:07.725Z,2.50
2019-02-10T19:21:53.830Z,2.50
2019-02-10T19:24:40.338Z,2.50
2019-02-10T19:27:13.350Z,2.50
2019-02-10T19:30:01.298Z,2.40
2019-02-10T19:32:39.872Z,2.40
2019-02-10T19:35:25.922Z,2.40
2019-02-10T19:38:12.209Z,2.40
2019-02-10T19:40:45.185Z,2.30
2019-02-10T19:43:21.005Z,2.30
2019-02-10T19:46:09.158Z,2.20
2019-02-10T19:48:39.261Z,2.10
2019-02-10T19:51:15.089Z,2.00
2019-02-10T19:53:45.180Z,1.90
2019-02-10T19:56:15.269Z,1.90
2019-02-10T19:58:48.157Z,1.80
2019-02-10T20:01:30.334Z,1.70
2019-02-10T20:04:09.182Z,1.70
2019-02-10T20:06:39.275Z,1.60
2019-02-10T20:09:12.431Z,1.50
2019-02-10T20:11:42.523Z,1.50
2019-02-10T20:14:18.013Z,1.50
2019-02-10T20:16:53.753Z,1.40
2019-02-10T20:19:26.795Z,1.40
2019-02-10T20:21:56.872Z,1.40
2019-02-10T20:24:29.893Z,1.40
2019-02-10T20:26:59.944Z,1.30
2019-02-10T20:29:46.209Z,1.30
2019-02-10T20:32:19.004Z,1.30
2019-02-10T20:35:05.179Z,1.30
2019-02-10T20:37:42.408Z,1.30
2019-02-10T20:40:08.925Z,1.30
2019-02-10T20:42:44.714Z,1.30
2019-02-10T20:45:14.844Z,1.30
2019-02-10T20:48:01.127Z,1.30
2019-02-10T20:50:32.133Z,1.30
2019-02-10T20:53:05.136Z,1.30
2019-02-10T20:55:36.130Z,1.30
2019-02-10T20:58:15.364Z,1.30
2019-02-10T21:00:45.573Z,1.20
2019-02-10T21:03:15.609Z,1.20
2019-02-10T21:05:48.638Z,1.10
2019-02-10T21:08:21.849Z,1.10
2019-02-10T21:11:01.249Z,1.10
2019-02-10T21:13:31.511Z,1.10
2019-02-10T21:16:04.418Z,1.00
2019-02-10T21:18:40.195Z,0.90
2019-02-10T21:21:26.191Z,0.90
2019-02-10T21:24:08.280Z,0.90
2019-02-10T21:26:47.473Z,0.80
2019-02-10T21:29:33.576Z,0.80
2019-02-10T21:32:03.688Z,0.70
2019-02-10T21:34:45.718Z,0.80
2019-02-10T21:37:18.574Z,0.80
2019-02-10T21:40:06.645Z,0.70
2019-02-10T21:42:42.731Z,0.60
2019-02-10T21:45:28.738Z,0.60
2019-02-10T21:48:04.427Z,0.50
2019-02-10T21:50:32.872Z,0.50
2019-02-10T21:53:01.316Z,0.50
2019-02-10T21:55:29.788Z,0.40
2019-02-10T21:57:58.241Z,0.40
2019-02-10T22:00:26.693Z,0.40
2019-02-10T22:02:55.509Z,0.40
2019-02-10T22:05:23.988Z,0.30
2019-02-10T22:07:52.442Z,0.30
2019-02-10T22:10:20.978Z,0.30
2019-02-10T22:12:49.556Z,0.30
2019-02-10T22:15:18.174Z,0.30
2019-02-10T22:17:46.691Z,0.30
2019-02-10T22:20:15.144Z,0.30
2019-02-10T22:22:43.563Z,0.30
2019-02-10T22:25:12.385Z,0.30
2019-02-10T22:27:40.801Z,0.30
2019-02-10T22:30:16.413Z,0.30
2019-02-10T22:32:44.902Z,0.30
2019-02-10T22:35:13.372Z,0.30
2019-02-10T22:37:41.807Z,0.20
2019-02-10T22:40:11.824Z,0.20
2019-02-10T22:42:45.482Z,0.20
2019-02-10T22:45:12.117Z,0.20
2019-02-10T22:47:40.689Z,0.20
2019-02-10T22:50:15.231Z,0.20
2019-02-10T22:52:43.874Z,0.20
2019-02-10T22:55:12.341Z,0.20
2019-02-10T22:57:41.317Z,0.20
2019-02-10T23:00:17.279Z,0.20
2019-02-10T23:02:45.765Z,0.20
2019-02-10T23:05:14.345Z,0.10
2019-02-10T23:07:42.765Z,0.10
2019-02-10T23:10:11.201Z,0.10
2019-02-10T23:12:39.622Z,0.10
2019-02-10T23:15:08.175Z,0.10
2019-02-10T23:17:36.606Z,0.10
2019-02-10T23:20:06.032Z,0.10
2019-02-10T23:22:34.433Z,0.00
2019-02-10T23:25:03.326Z,0.00
2019-02-10T23:27:31.746Z,0.00
2019-02-10T23:30:00.285Z,0.00
2019-02-10T23:32:28.780Z,0.00
2019-02-10T23:34:57.228Z,0.00
2019-02-10T23:37:26.534Z,0.00
2019-02-10T23:39:54.961Z,-0.10
2019-02-10T23:42:23.392Z,-0.10
2019-02-10T23:44:51.837Z,-0.10
2019-02-10T23:47:39.599Z,-0.10
2019-02-10T23:50:28.902Z,-0.10
2019-02-10T23:52:57.325Z,-0.10
2019-02-10T23:55:45.133Z,-0.10
2019-02-10T23:58:32.901Z,-0.10
